sensor_id;sensor_type;location;lat;lon;timestamp;pressure;altitude;pressure_sealevel;temperature;humidity
53522;BME280;39398;48.382;9.802;2023-02-28T00:01:17;94151.75;;;-4.27;100.00
53522;BME280;39398;48.382;9.802;2023-02-28T00:06:18;94151.88;;;-3.89;100.00
53522;BME280;39398;48.382;9.802;2023-02-28T00:11:20;94140.44;;;-3.85;100.00
53522;BME280;39398;48.382;9.802;2023-02-28T00:16:23;94135.84;;;-4.07;100.00
53522;BME280;39398;48.382;9.802;2023-02-28T00:21:25;94139.69;;;-4.27;100.00
53522;BME280;39398;48.382;9.802;2023-02-28T00:26:27;94139.44;;;-4.36;100.00
53522;BME280;39398;48.382;9.802;2023-02-28T00:31:30;94137.22;;;-3.88;100.00
53522;BME280;39398;48.382;9.802;2023-02-28T00:36:32;94139.44;;;-4.09;100.00
53522;BME280;39398;48.382;9.802;2023-02-28T00:41:33;94130.78;;;-4.08;100.00
53522;BME280;39398;48.382;9.802;2023-02-28T00:46:36;94132.13;;;-4.03;100.00
53522;BME280;39398;48.382;9.802;2023-02-28T00:51:38;94132.03;;;-4.01;100.00
53522;BME280;39398;48.382;9.802;2023-02-28T00:56:39;94136.88;;;-3.97;100.00
53522;BME280;39398;48.382;9.802;2023-02-28T01:01:43;94120.63;;;-3.84;100.00
53522;BME280;39398;48.382;9.802;2023-02-28T01:06:44;94138.44;;;-3.94;100.00
53522;BME280;39398;48.382;9.802;2023-02-28T01:11:46;94123.75;;;-3.79;100.00
53522;BME280;39398;48.382;9.802;2023-02-28T01:16:49;94119.69;;;-3.83;100.00
53522;BME280;39398;48.382;9.802;2023-02-28T01:21:51;94127.94;;;-3.91;100.00
53522;BME280;39398;48.382;9.802;2023-02-28T01:26:52;94124.50;;;-4.04;100.00
53522;BME280;39398;48.382;9.802;2023-02-28T01:31:55;94111.06;;;-3.57;100.00
53522;BME280;39398;48.382;9.802;2023-02-28T01:36:57;94117.25;;;-3.72;100.00
53522;BME280;39398;48.382;9.802;2023-02-28T01:41:58;94109.38;;;-3.83;100.00
53522;BME280;39398;48.382;9.802;2023-02-28T01:47:01;94116.22;;;-4.09;100.00
53522;BME280;39398;48.382;9.802;2023-02-28T01:52:03;94102.16;;;-3.78;100.00
53522;BME280;39398;48.382;9.802;2023-02-28T01:57:07;94109.53;;;-3.99;100.00
53522;BME280;39398;48.382;9.802;2023-02-28T02:02:12;94098.91;;;-4.34;100.00
53522;BME280;39398;48.382;9.802;2023-02-28T02:07:14;94097.50;;;-3.99;100.00
53522;BME280;39398;48.382;9.802;2023-02-28T02:12:25;94103.06;;;-4.32;100.00
53522;BME280;39398;48.382;9.802;2023-02-28T02:17:38;94097.56;;;-4.13;100.00
53522;BME280;39398;48.382;9.802;2023-02-28T02:23:06;94086.97;;;-4.35;100.00
53522;BME280;39398;48.382;9.802;2023-02-28T02:34:05;94090.41;;;-4.22;100.00
53522;BME280;39398;48.382;9.802;2023-02-28T02:39:14;94087.16;;;-4.38;100.00
53522;BME280;39398;48.382;9.802;2023-02-28T02:44:21;94081.44;;;-4.29;100.00
53522;BME280;39398;48.382;9.802;2023-02-28T02:49:27;94085.75;;;-4.30;100.00
53522;BME280;39398;48.382;9.802;2023-02-28T02:54:32;94092.63;;;-4.03;100.00
53522;BME280;39398;48.382;9.802;2023-02-28T02:59:35;94091.19;;;-4.07;100.00
53522;BME280;39398;48.382;9.802;2023-02-28T03:04:43;94087.81;;;-3.82;100.00
53522;BME280;39398;48.382;9.802;2023-02-28T03:09:50;94086.44;;;-4.01;100.00
53522;BME280;39398;48.382;9.802;2023-02-28T03:14:56;94088.25;;;-3.76;100.00
53522;BME280;39398;48.382;9.802;2023-02-28T03:20:09;94077.28;;;-3.92;100.00
53522;BME280;39398;48.382;9.802;2023-02-28T03:25:17;94091.13;;;-3.67;100.00
53522;BME280;39398;48.382;9.802;2023-02-28T03:30:24;94089.41;;;-3.67;100.00
53522;BME280;39398;48.382;9.802;2023-02-28T03:35:32;94088.94;;;-3.74;100.00
53522;BME280;39398;48.382;9.802;2023-02-28T03:40:37;94098.47;;;-3.48;100.00
53522;BME280;39398;48.382;9.802;2023-02-28T03:45:41;94091.75;;;-3.64;100.00
53522;BME280;39398;48.382;9.802;2023-02-28T03:50:49;94087.94;;;-3.45;100.00
53522;BME280;39398;48.382;9.802;2023-02-28T03:55:56;94085.25;;;-3.57;100.00
53522;BME280;39398;48.382;9.802;2023-02-28T04:01:03;94100.94;;;-3.60;100.00
53522;BME280;39398;48.382;9.802;2023-02-28T04:06:14;94102.19;;;-3.53;100.00
53522;BME280;39398;48.382;9.802;2023-02-28T04:11:21;94092.69;;;-3.65;100.00
53522;BME280;39398;48.382;9.802;2023-02-28T04:16:23;94097.03;;;-3.53;100.00
53522;BME280;39398;48.382;9.802;2023-02-28T04:21:38;94097.44;;;-3.59;100.00
53522;BME280;39398;48.382;9.802;2023-02-28T04:26:42;94096.47;;;-3.70;100.00
53522;BME280;39398;48.382;9.802;2023-02-28T04:31:44;94098.38;;;-3.60;100.00
53522;BME280;39398;48.382;9.802;2023-02-28T04:36:48;94088.47;;;-3.53;100.00
53522;BME280;39398;48.382;9.802;2023-02-28T04:42:03;94090.22;;;-3.41;100.00
53522;BME280;39398;48.382;9.802;2023-02-28T04:47:04;94089.81;;;-3.47;100.00
53522;BME280;39398;48.382;9.802;2023-02-28T04:52:07;94093.72;;;-3.55;100.00
53522;BME280;39398;48.382;9.802;2023-02-28T04:57:09;94096.09;;;-3.39;100.00
53522;BME280;39398;48.382;9.802;2023-02-28T05:02:10;94099.81;;;-3.30;100.00
53522;BME280;39398;48.382;9.802;2023-02-28T05:07:13;94099.94;;;-3.44;100.00
53522;BME280;39398;48.382;9.802;2023-02-28T05:12:15;94100.97;;;-3.47;100.00
53522;BME280;39398;48.382;9.802;2023-02-28T05:17:16;94103.75;;;-3.50;100.00
53522;BME280;39398;48.382;9.802;2023-02-28T05:22:19;94108.59;;;-3.33;100.00
53522;BME280;39398;48.382;9.802;2023-02-28T05:27:21;94112.31;;;-3.24;100.00
53522;BME280;39398;48.382;9.802;2023-02-28T05:32:23;94105.78;;;-3.55;100.00
53522;BME280;39398;48.382;9.802;2023-02-28T05:37:26;94114.16;;;-3.39;100.00
53522;BME280;39398;48.382;9.802;2023-02-28T05:42:27;94110.13;;;-3.56;100.00
53522;BME280;39398;48.382;9.802;2023-02-28T05:47:29;94114.28;;;-3.53;100.00
53522;BME280;39398;48.382;9.802;2023-02-28T05:52:32;94117.03;;;-3.69;100.00
53522;BME280;39398;48.382;9.802;2023-02-28T05:57:33;94123.88;;;-3.42;100.00
53522;BME280;39398;48.382;9.802;2023-02-28T06:02:35;94130.25;;;-3.22;100.00
53522;BME280;39398;48.382;9.802;2023-02-28T06:07:38;94125.41;;;-3.27;100.00
53522;BME280;39398;48.382;9.802;2023-02-28T06:12:40;94128.13;;;-3.41;100.00
53522;BME280;39398;48.382;9.802;2023-02-28T06:17:42;94125.00;;;-3.34;100.00
53522;BME280;39398;48.382;9.802;2023-02-28T06:22:45;94131.72;;;-3.31;100.00
53522;BME280;39398;48.382;9.802;2023-02-28T06:27:47;94143.16;;;-3.48;100.00
53522;BME280;39398;48.382;9.802;2023-02-28T06:32:49;94144.91;;;-3.48;100.00
53522;BME280;39398;48.382;9.802;2023-02-28T06:37:52;94162.75;;;-3.58;100.00
53522;BME280;39398;48.382;9.802;2023-02-28T06:42:53;94164.66;;;-3.47;100.00
53522;BME280;39398;48.382;9.802;2023-02-28T06:47:55;94177.22;;;-3.56;100.00
53522;BME280;39398;48.382;9.802;2023-02-28T06:52:58;94164.47;;;-3.44;100.00
53522;BME280;39398;48.382;9.802;2023-02-28T06:57:59;94181.44;;;-3.67;100.00
53522;BME280;39398;48.382;9.802;2023-02-28T07:03:01;94177.38;;;-3.32;100.00
53522;BME280;39398;48.382;9.802;2023-02-28T07:08:05;94177.53;;;-3.60;100.00
53522;BME280;39398;48.382;9.802;2023-02-28T07:13:07;94183.38;;;-3.31;100.00
53522;BME280;39398;48.382;9.802;2023-02-28T07:18:09;94189.75;;;-3.37;100.00
53522;BME280;39398;48.382;9.802;2023-02-28T07:23:12;94192.50;;;-3.53;100.00
53522;BME280;39398;48.382;9.802;2023-02-28T07:28:14;94193.88;;;-3.34;100.00
53522;BME280;39398;48.382;9.802;2023-02-28T07:33:15;94204.41;;;-3.77;100.00
53522;BME280;39398;48.382;9.802;2023-02-28T07:38:19;94205.94;;;-3.60;100.00
53522;BME280;39398;48.382;9.802;2023-02-28T07:43:20;94200.81;;;-3.35;100.00
53522;BME280;39398;48.382;9.802;2023-02-28T07:48:22;94210.78;;;-3.56;100.00
53522;BME280;39398;48.382;9.802;2023-02-28T07:53:25;94205.84;;;-3.33;100.00
53522;BME280;39398;48.382;9.802;2023-02-28T07:58:27;94209.97;;;-3.43;100.00
53522;BME280;39398;48.382;9.802;2023-02-28T08:03:29;94214.75;;;-3.37;100.00
53522;BME280;39398;48.382;9.802;2023-02-28T08:08:32;94221.03;;;-3.54;100.00
53522;BME280;39398;48.382;9.802;2023-02-28T08:13:33;94224.63;;;-3.57;100.00
53522;BME280;39398;48.382;9.802;2023-02-28T08:18:35;94219.56;;;-3.45;100.00
53522;BME280;39398;48.382;9.802;2023-02-28T08:23:38;94225.59;;;-3.19;100.00
53522;BME280;39398;48.382;9.802;2023-02-28T08:28:40;94226.13;;;-3.01;100.00
53522;BME280;39398;48.382;9.802;2023-02-28T08:33:42;94233.22;;;-3.43;100.00
53522;BME280;39398;48.382;9.802;2023-02-28T08:38:45;94234.47;;;-3.36;100.00
53522;BME280;39398;48.382;9.802;2023-02-28T08:43:47;94234.28;;;-3.08;100.00
53522;BME280;39398;48.382;9.802;2023-02-28T08:48:51;94236.25;;;-3.24;100.00
53522;BME280;39398;48.382;9.802;2023-02-28T08:53:57;94251.22;;;-3.04;100.00
53522;BME280;39398;48.382;9.802;2023-02-28T08:58:59;94241.22;;;-2.95;99.87
53522;BME280;39398;48.382;9.802;2023-02-28T09:04:02;94236.06;;;-2.95;100.00
53522;BME280;39398;48.382;9.802;2023-02-28T09:09:04;94238.09;;;-3.13;98.62
53522;BME280;39398;48.382;9.802;2023-02-28T09:14:06;94251.66;;;-2.97;99.08
53522;BME280;39398;48.382;9.802;2023-02-28T09:19:10;94256.72;;;-3.08;100.00
53522;BME280;39398;48.382;9.802;2023-02-28T09:24:13;94258.59;;;-2.85;98.54
53522;BME280;39398;48.382;9.802;2023-02-28T09:29:15;94255.56;;;-2.40;97.49
53522;BME280;39398;48.382;9.802;2023-02-28T09:34:16;94257.75;;;-2.85;98.91
53522;BME280;39398;48.382;9.802;2023-02-28T09:39:19;94261.59;;;-2.78;98.65
53522;BME280;39398;48.382;9.802;2023-02-28T09:44:26;94262.84;;;-2.58;97.54
53522;BME280;39398;48.382;9.802;2023-02-28T09:49:34;94273.47;;;-2.63;96.84
53522;BME280;39398;48.382;9.802;2023-02-28T09:54:39;94268.44;;;-2.64;96.77
53522;BME280;39398;48.382;9.802;2023-02-28T09:59:53;94271.69;;;-2.24;95.23
53522;BME280;39398;48.382;9.802;2023-02-28T10:05:00;94270.63;;;-2.08;92.46
53522;BME280;39398;48.382;9.802;2023-02-28T10:10:19;94275.94;;;-2.23;92.13
53522;BME280;39398;48.382;9.802;2023-02-28T10:15:24;94276.25;;;-1.78;92.13
53522;BME280;39398;48.382;9.802;2023-02-28T10:20:27;94285.41;;;-1.98;91.87
53522;BME280;39398;48.382;9.802;2023-02-28T10:25:30;94279.03;;;-1.81;91.59
53522;BME280;39398;48.382;9.802;2023-02-28T10:30:32;94277.28;;;-1.80;91.52
53522;BME280;39398;48.382;9.802;2023-02-28T10:35:33;94277.75;;;-1.62;89.54
53522;BME280;39398;48.382;9.802;2023-02-28T10:40:37;94280.19;;;-1.85;89.89
53522;BME280;39398;48.382;9.802;2023-02-28T10:45:40;94289.69;;;-1.49;90.90
53522;BME280;39398;48.382;9.802;2023-02-28T10:50:54;94297.72;;;-1.65;90.21
53522;BME280;39398;48.382;9.802;2023-02-28T10:56:00;94288.31;;;-1.18;91.10
53522;BME280;39398;48.382;9.802;2023-02-28T11:01:02;94294.75;;;-0.88;90.55
53522;BME280;39398;48.382;9.802;2023-02-28T11:06:07;94294.78;;;-0.77;85.98
53522;BME280;39398;48.382;9.802;2023-02-28T11:11:10;94295.31;;;-0.49;86.00
53522;BME280;39398;48.382;9.802;2023-02-28T11:16:13;94291.09;;;-0.28;84.04
53522;BME280;39398;48.382;9.802;2023-02-28T11:21:19;94298.63;;;-0.13;86.99
53522;BME280;39398;48.382;9.802;2023-02-28T11:26:41;94301.47;;;0.17;82.83
53522;BME280;39398;48.382;9.802;2023-02-28T11:31:43;94292.75;;;-0.04;87.34
53522;BME280;39398;48.382;9.802;2023-02-28T11:36:45;94290.88;;;-0.02;85.07
53522;BME280;39398;48.382;9.802;2023-02-28T11:42:02;94287.91;;;-0.31;84.29
53522;BME280;39398;48.382;9.802;2023-02-28T11:47:10;94289.91;;;0.10;85.25
53522;BME280;39398;48.382;9.802;2023-02-28T11:52:21;94287.94;;;0.57;81.74
53522;BME280;39398;48.382;9.802;2023-02-28T11:57:45;94279.28;;;0.02;83.86
53522;BME280;39398;48.382;9.802;2023-02-28T12:02:59;94271.50;;;0.13;80.96
53522;BME280;39398;48.382;9.802;2023-02-28T12:08:17;94275.84;;;0.24;87.36
53522;BME280;39398;48.382;9.802;2023-02-28T12:13:26;94271.13;;;0.29;85.71
53522;BME280;39398;48.382;9.802;2023-02-28T12:18:48;94267.81;;;0.38;89.85
53522;BME280;39398;48.382;9.802;2023-02-28T12:24:05;94261.00;;;-0.53;89.40
53522;BME280;39398;48.382;9.802;2023-02-28T12:29:16;94266.44;;;0.01;88.36
53522;BME280;39398;48.382;9.802;2023-02-28T12:34:20;94266.53;;;0.21;86.01
53522;BME280;39398;48.382;9.802;2023-02-28T12:39:26;94262.53;;;-0.16;88.94
53522;BME280;39398;48.382;9.802;2023-02-28T12:44:33;94255.56;;;0.18;87.93
53522;BME280;39398;48.382;9.802;2023-02-28T12:49:39;94256.00;;;0.34;85.31
53522;BME280;39398;48.382;9.802;2023-02-28T12:54:46;94250.13;;;0.64;80.28
53522;BME280;39398;48.382;9.802;2023-02-28T12:59:55;94250.41;;;0.82;83.59
53522;BME280;39398;48.382;9.802;2023-02-28T13:05:19;94245.16;;;0.93;79.02
53522;BME280;39398;48.382;9.802;2023-02-28T13:10:38;94248.38;;;0.86;84.18
53522;BME280;39398;48.382;9.802;2023-02-28T13:15:56;94239.50;;;0.88;77.78
53522;BME280;39398;48.382;9.802;2023-02-28T13:21:00;94243.28;;;1.16;79.65
53522;BME280;39398;48.382;9.802;2023-02-28T13:26:02;94238.94;;;1.48;78.55
53522;BME280;39398;48.382;9.802;2023-02-28T13:31:05;94244.06;;;0.43;85.86
53522;BME280;39398;48.382;9.802;2023-02-28T13:36:10;94248.69;;;0.39;86.63
53522;BME280;39398;48.382;9.802;2023-02-28T13:41:40;94242.84;;;0.47;86.43
53522;BME280;39398;48.382;9.802;2023-02-28T13:47:23;94237.25;;;1.16;79.83
53522;BME280;39398;48.382;9.802;2023-02-28T13:52:25;94234.56;;;1.27;81.97
53522;BME280;39398;48.382;9.802;2023-02-28T13:57:35;94233.00;;;0.30;85.29
53522;BME280;39398;48.382;9.802;2023-02-28T14:02:57;94234.25;;;1.72;78.39
53522;BME280;39398;48.382;9.802;2023-02-28T14:08:06;94242.63;;;1.45;75.49
53522;BME280;39398;48.382;9.802;2023-02-28T14:18:34;94253.25;;;1.94;75.81
53522;BME280;39398;48.382;9.802;2023-02-28T14:29:43;94259.19;;;1.44;82.54
53522;BME280;39398;48.382;9.802;2023-02-28T14:34:57;94254.31;;;1.30;79.98
53522;BME280;39398;48.382;9.802;2023-02-28T14:40:11;94259.16;;;1.65;77.14
53522;BME280;39398;48.382;9.802;2023-02-28T14:45:18;94268.06;;;1.93;76.54
53522;BME280;39398;48.382;9.802;2023-02-28T14:50:23;94266.91;;;1.55;76.99
53522;BME280;39398;48.382;9.802;2023-02-28T14:55:27;94270.09;;;1.59;76.53
53522;BME280;39398;48.382;9.802;2023-02-28T15:00:31;94260.19;;;1.74;73.91
53522;BME280;39398;48.382;9.802;2023-02-28T15:05:35;94261.69;;;2.17;74.22
53522;BME280;39398;48.382;9.802;2023-02-28T15:10:37;94266.06;;;2.06;74.47
53522;BME280;39398;48.382;9.802;2023-02-28T15:15:45;94269.31;;;1.68;72.65
53522;BME280;39398;48.382;9.802;2023-02-28T15:21:05;94267.41;;;2.01;71.62
53522;BME280;39398;48.382;9.802;2023-02-28T15:26:11;94276.50;;;1.76;73.42
53522;BME280;39398;48.382;9.802;2023-02-28T15:31:24;94277.47;;;1.54;77.45
53522;BME280;39398;48.382;9.802;2023-02-28T15:36:31;94277.84;;;1.49;74.81
53522;BME280;39398;48.382;9.802;2023-02-28T15:41:36;94272.31;;;1.63;74.20
53522;BME280;39398;48.382;9.802;2023-02-28T15:46:38;94286.22;;;0.79;81.33
53522;BME280;39398;48.382;9.802;2023-02-28T15:51:41;94275.19;;;1.39;74.35
53522;BME280;39398;48.382;9.802;2023-02-28T15:56:44;94288.94;;;1.30;75.97
53522;BME280;39398;48.382;9.802;2023-02-28T16:02:03;94292.53;;;0.97;76.82
53522;BME280;39398;48.382;9.802;2023-02-28T16:07:12;94289.44;;;1.24;76.69
53522;BME280;39398;48.382;9.802;2023-02-28T16:12:14;94288.81;;;1.11;77.03
53522;BME280;39398;48.382;9.802;2023-02-28T16:17:20;94289.19;;;1.06;78.14
53522;BME280;39398;48.382;9.802;2023-02-28T16:22:23;94289.50;;;1.13;77.41
53522;BME280;39398;48.382;9.802;2023-02-28T16:27:30;94290.22;;;0.83;77.79
53522;BME280;39398;48.382;9.802;2023-02-28T16:32:34;94294.91;;;0.89;76.56
53522;BME280;39398;48.382;9.802;2023-02-28T16:37:38;94305.81;;;0.83;76.89
53522;BME280;39398;48.382;9.802;2023-02-28T16:42:40;94301.63;;;1.03;74.84
53522;BME280;39398;48.382;9.802;2023-02-28T16:47:42;94301.06;;;0.88;76.65
53522;BME280;39398;48.382;9.802;2023-02-28T16:52:45;94306.66;;;0.83;76.61
53522;BME280;39398;48.382;9.802;2023-02-28T16:57:50;94301.16;;;0.65;77.59
53522;BME280;39398;48.382;9.802;2023-02-28T17:02:53;94303.72;;;0.77;77.35
53522;BME280;39398;48.382;9.802;2023-02-28T17:07:56;94315.00;;;0.55;78.34
53522;BME280;39398;48.382;9.802;2023-02-28T17:12:57;94316.50;;;0.68;78.44
53522;BME280;39398;48.382;9.802;2023-02-28T17:18:16;94319.00;;;0.47;78.08
53522;BME280;39398;48.382;9.802;2023-02-28T17:23:20;94318.41;;;0.55;77.79
53522;BME280;39398;48.382;9.802;2023-02-28T17:28:21;94322.47;;;0.48;79.07
53522;BME280;39398;48.382;9.802;2023-02-28T17:33:23;94333.19;;;0.43;78.64
53522;BME280;39398;48.382;9.802;2023-02-28T17:38:26;94328.72;;;0.12;79.77
53522;BME280;39398;48.382;9.802;2023-02-28T17:43:27;94322.72;;;0.22;78.75
53522;BME280;39398;48.382;9.802;2023-02-28T17:48:29;94331.78;;;0.28;78.48
53522;BME280;39398;48.382;9.802;2023-02-28T17:53:33;94328.25;;;0.18;80.20
53522;BME280;39398;48.382;9.802;2023-02-28T17:58:35;94335.09;;;0.19;79.39
53522;BME280;39398;48.382;9.802;2023-02-28T18:03:37;94345.72;;;0.16;80.39
53522;BME280;39398;48.382;9.802;2023-02-28T18:08:40;94344.09;;;0.04;81.14
53522;BME280;39398;48.382;9.802;2023-02-28T18:13:41;94340.66;;;-0.08;82.29
53522;BME280;39398;48.382;9.802;2023-02-28T18:18:43;94339.72;;;-0.18;82.93
53522;BME280;39398;48.382;9.802;2023-02-28T18:23:46;94336.34;;;-0.43;84.70
53522;BME280;39398;48.382;9.802;2023-02-28T18:28:47;94337.78;;;-0.39;84.38
53522;BME280;39398;48.382;9.802;2023-02-28T18:33:51;94337.63;;;-0.49;84.49
53522;BME280;39398;48.382;9.802;2023-02-28T18:38:54;94338.72;;;-0.40;84.10
53522;BME280;39398;48.382;9.802;2023-02-28T18:43:56;94329.56;;;-0.10;83.27
53522;BME280;39398;48.382;9.802;2023-02-28T18:48:59;94338.59;;;-0.38;85.19
53522;BME280;39398;48.382;9.802;2023-02-28T18:54:02;94334.63;;;-0.09;82.89
53522;BME280;39398;48.382;9.802;2023-02-28T18:59:04;94323.91;;;-0.15;83.74
53522;BME280;39398;48.382;9.802;2023-02-28T19:04:05;94320.13;;;-0.11;83.18
53522;BME280;39398;48.382;9.802;2023-02-28T19:09:09;94323.88;;;-0.04;83.65
53522;BME280;39398;48.382;9.802;2023-02-28T19:14:10;94333.06;;;-0.22;83.92
53522;BME280;39398;48.382;9.802;2023-02-28T19:19:12;94333.34;;;-0.72;88.42
53522;BME280;39398;48.382;9.802;2023-02-28T19:24:14;94328.25;;;-0.74;88.55
53522;BME280;39398;48.382;9.802;2023-02-28T19:29:16;94332.03;;;-0.78;89.75
53522;BME280;39398;48.382;9.802;2023-02-28T19:34:18;94331.06;;;-0.88;88.63
53522;BME280;39398;48.382;9.802;2023-02-28T19:39:21;94336.22;;;-1.23;90.74
53522;BME280;39398;48.382;9.802;2023-02-28T19:44:23;94328.88;;;-1.05;90.97
53522;BME280;39398;48.382;9.802;2023-02-28T19:49:24;94329.03;;;-1.20;91.07
53522;BME280;39398;48.382;9.802;2023-02-28T19:54:28;94317.34;;;-1.01;90.58
53522;BME280;39398;48.382;9.802;2023-02-28T19:59:30;94321.78;;;-1.14;91.34
53522;BME280;39398;48.382;9.802;2023-02-28T20:04:40;94322.56;;;-1.38;91.80
53522;BME280;39398;48.382;9.802;2023-02-28T20:09:43;94321.94;;;-1.53;92.81
53522;BME280;39398;48.382;9.802;2023-02-28T20:14:45;94321.69;;;-1.26;91.54
53522;BME280;39398;48.382;9.802;2023-02-28T20:19:46;94323.56;;;-1.52;92.50
53522;BME280;39398;48.382;9.802;2023-02-28T20:24:49;94317.09;;;-1.70;94.24
53522;BME280;39398;48.382;9.802;2023-02-28T20:29:51;94320.41;;;-1.68;94.11
53522;BME280;39398;48.382;9.802;2023-02-28T20:34:52;94307.66;;;-1.58;93.38
53522;BME280;39398;48.382;9.802;2023-02-28T20:39:55;94320.88;;;-1.26;92.10
53522;BME280;39398;48.382;9.802;2023-02-28T20:44:57;94320.22;;;-1.17;91.74
53522;BME280;39398;48.382;9.802;2023-02-28T20:49:58;94320.00;;;-1.62;93.04
53522;BME280;39398;48.382;9.802;2023-02-28T20:55:01;94318.13;;;-1.73;93.73
53522;BME280;39398;48.382;9.802;2023-02-28T21:00:05;94318.22;;;-1.61;93.70
53522;BME280;39398;48.382;9.802;2023-02-28T21:05:07;94309.03;;;-1.42;92.59
53522;BME280;39398;48.382;9.802;2023-02-28T21:10:11;94312.94;;;-1.36;92.11
53522;BME280;39398;48.382;9.802;2023-02-28T21:15:13;94317.09;;;-1.70;93.53
53522;BME280;39398;48.382;9.802;2023-02-28T21:20:15;94319.59;;;-1.69;94.45
53522;BME280;39398;48.382;9.802;2023-02-28T21:25:18;94321.06;;;-1.53;93.74
53522;BME280;39398;48.382;9.802;2023-02-28T21:30:19;94311.84;;;-1.69;95.17
53522;BME280;39398;48.382;9.802;2023-02-28T21:35:21;94315.75;;;-1.76;95.70
53522;BME280;39398;48.382;9.802;2023-02-28T21:40:25;94320.69;;;-1.60;94.97
53522;BME280;39398;48.382;9.802;2023-02-28T21:45:26;94309.97;;;-1.79;96.52
53522;BME280;39398;48.382;9.802;2023-02-28T21:50:28;94313.22;;;-2.01;96.68
53522;BME280;39398;48.382;9.802;2023-02-28T21:55:33;94317.50;;;-2.00;97.77
53522;BME280;39398;48.382;9.802;2023-02-28T22:00:34;94319.28;;;-2.14;99.04
53522;BME280;39398;48.382;9.802;2023-02-28T22:05:36;94314.00;;;-2.12;98.22
53522;BME280;39398;48.382;9.802;2023-02-28T22:10:39;94319.38;;;-2.28;100.00
53522;BME280;39398;48.382;9.802;2023-02-28T22:15:40;94309.97;;;-2.29;100.00
53522;BME280;39398;48.382;9.802;2023-02-28T22:20:42;94306.75;;;-2.20;99.57
53522;BME280;39398;48.382;9.802;2023-02-28T22:25:45;94303.88;;;-2.41;100.00
53522;BME280;39398;48.382;9.802;2023-02-28T22:30:47;94304.69;;;-2.53;100.00
53522;BME280;39398;48.382;9.802;2023-02-28T22:35:49;94293.22;;;-2.36;100.00
53522;BME280;39398;48.382;9.802;2023-02-28T22:40:55;94293.44;;;-2.65;100.00
53522;BME280;39398;48.382;9.802;2023-02-28T22:46:00;94291.16;;;-2.69;100.00
53522;BME280;39398;48.382;9.802;2023-02-28T22:51:04;94295.59;;;-2.71;100.00
53522;BME280;39398;48.382;9.802;2023-02-28T22:56:09;94291.34;;;-2.72;100.00
53522;BME280;39398;48.382;9.802;2023-02-28T23:01:13;94295.09;;;-2.51;100.00
53522;BME280;39398;48.382;9.802;2023-02-28T23:06:18;94302.31;;;-2.56;100.00
53522;BME280;39398;48.382;9.802;2023-02-28T23:11:23;94296.44;;;-2.45;100.00
53522;BME280;39398;48.382;9.802;2023-02-28T23:16:27;94294.53;;;-2.18;100.00
53522;BME280;39398;48.382;9.802;2023-02-28T23:21:29;94293.44;;;-2.39;100.00
53522;BME280;39398;48.382;9.802;2023-02-28T23:26:32;94291.53;;;-2.24;100.00
53522;BME280;39398;48.382;9.802;2023-02-28T23:31:34;94296.94;;;-2.27;100.00
53522;BME280;39398;48.382;9.802;2023-02-28T23:36:36;94301.03;;;-1.99;100.00
53522;BME280;39398;48.382;9.802;2023-02-28T23:41:39;94305.28;;;-2.11;100.00
53522;BME280;39398;48.382;9.802;2023-02-28T23:46:41;94302.38;;;-1.94;100.00
53522;BME280;39398;48.382;9.802;2023-02-28T23:51:42;94304.81;;;-1.79;100.00
53522;BME280;39398;48.382;9.802;2023-02-28T23:56:45;94293.47;;;-2.02;100.00
